sensor_id;sensor_type;location;lat;lon;timestamp;P1;durP1;ratioP1;P2;durP2;ratioP2
26269;SDS011;15937;50.612;6.656;2023-12-22T00:01:20;19.20;;;2.88;;
26269;SDS011;15937;50.612;6.656;2023-12-22T00:05:22;10.05;;;2.80;;
26269;SDS011;15937;50.612;6.656;2023-12-22T00:09:24;13.98;;;2.85;;
26269;SDS011;15937;50.612;6.656;2023-12-22T00:13:26;13.50;;;2.42;;
26269;SDS011;15937;50.612;6.656;2023-12-22T00:17:28;9.93;;;2.10;;
26269;SDS011;15937;50.612;6.656;2023-12-22T00:21:30;7.97;;;2.10;;
26269;SDS011;15937;50.612;6.656;2023-12-22T00:25:33;12.05;;;2.50;;
26269;SDS011;15937;50.612;6.656;2023-12-22T00:29:34;20.15;;;2.60;;
26269;SDS011;15937;50.612;6.656;2023-12-22T00:33:38;15.85;;;3.35;;
26269;SDS011;15937;50.612;6.656;2023-12-22T00:37:40;18.83;;;3.92;;
26269;SDS011;15937;50.612;6.656;2023-12-22T00:41:42;17.25;;;3.38;;
26269;SDS011;15937;50.612;6.656;2023-12-22T00:45:44;16.30;;;2.38;;
26269;SDS011;15937;50.612;6.656;2023-12-22T00:49:46;26.83;;;3.45;;
26269;SDS011;15937;50.612;6.656;2023-12-22T00:53:47;25.40;;;3.08;;
26269;SDS011;15937;50.612;6.656;2023-12-22T00:57:49;11.75;;;2.92;;
26269;SDS011;15937;50.612;6.656;2023-12-22T01:01:51;10.05;;;2.22;;
26269;SDS011;15937;50.612;6.656;2023-12-22T01:05:53;17.60;;;2.70;;
26269;SDS011;15937;50.612;6.656;2023-12-22T01:09:55;9.03;;;2.57;;
26269;SDS011;15937;50.612;6.656;2023-12-22T01:14:02;8.73;;;2.90;;
26269;SDS011;15937;50.612;6.656;2023-12-22T01:18:04;21.88;;;4.35;;
26269;SDS011;15937;50.612;6.656;2023-12-22T01:22:06;14.65;;;2.15;;
26269;SDS011;15937;50.612;6.656;2023-12-22T01:26:08;18.05;;;3.10;;
26269;SDS011;15937;50.612;6.656;2023-12-22T01:30:10;8.77;;;2.40;;
26269;SDS011;15937;50.612;6.656;2023-12-22T01:34:12;19.95;;;4.50;;
26269;SDS011;15937;50.612;6.656;2023-12-22T01:38:14;12.13;;;2.03;;
26269;SDS011;15937;50.612;6.656;2023-12-22T01:42:16;18.77;;;2.55;;
26269;SDS011;15937;50.612;6.656;2023-12-22T01:50:21;9.02;;;2.05;;
26269;SDS011;15937;50.612;6.656;2023-12-22T01:54:24;10.93;;;2.13;;
26269;SDS011;15937;50.612;6.656;2023-12-22T01:58:26;15.05;;;2.95;;
26269;SDS011;15937;50.612;6.656;2023-12-22T02:02:30;19.88;;;3.38;;
26269;SDS011;15937;50.612;6.656;2023-12-22T02:06:32;11.23;;;2.63;;
26269;SDS011;15937;50.612;6.656;2023-12-22T02:10:37;17.13;;;2.30;;
26269;SDS011;15937;50.612;6.656;2023-12-22T02:14:39;8.13;;;2.08;;
26269;SDS011;15937;50.612;6.656;2023-12-22T02:18:42;8.25;;;2.00;;
26269;SDS011;15937;50.612;6.656;2023-12-22T02:22:53;8.75;;;1.83;;
26269;SDS011;15937;50.612;6.656;2023-12-22T02:26:55;6.00;;;1.23;;
26269;SDS011;15937;50.612;6.656;2023-12-22T02:31:13;9.55;;;1.55;;
26269;SDS011;15937;50.612;6.656;2023-12-22T02:35:20;6.93;;;1.50;;
26269;SDS011;15937;50.612;6.656;2023-12-22T02:39:25;12.85;;;2.25;;
26269;SDS011;15937;50.612;6.656;2023-12-22T02:43:27;8.05;;;2.05;;
26269;SDS011;15937;50.612;6.656;2023-12-22T02:55:35;11.77;;;2.42;;
26269;SDS011;15937;50.612;6.656;2023-12-22T02:59:37;14.18;;;2.45;;
26269;SDS011;15937;50.612;6.656;2023-12-22T03:03:39;17.48;;;2.45;;
26269;SDS011;15937;50.612;6.656;2023-12-22T03:07:41;11.38;;;2.97;;
26269;SDS011;15937;50.612;6.656;2023-12-22T03:11:43;15.30;;;2.60;;
26269;SDS011;15937;50.612;6.656;2023-12-22T03:15:45;18.02;;;3.00;;
26269;SDS011;15937;50.612;6.656;2023-12-22T03:19:48;12.23;;;2.13;;
26269;SDS011;15937;50.612;6.656;2023-12-22T03:23:50;16.13;;;3.22;;
26269;SDS011;15937;50.612;6.656;2023-12-22T03:27:52;22.33;;;2.47;;
26269;SDS011;15937;50.612;6.656;2023-12-22T03:31:54;32.05;;;3.35;;
26269;SDS011;15937;50.612;6.656;2023-12-22T03:35:56;24.20;;;4.70;;
26269;SDS011;15937;50.612;6.656;2023-12-22T03:39:58;19.60;;;2.75;;
26269;SDS011;15937;50.612;6.656;2023-12-22T03:43:59;12.45;;;1.70;;
26269;SDS011;15937;50.612;6.656;2023-12-22T03:48:02;9.43;;;1.98;;
26269;SDS011;15937;50.612;6.656;2023-12-22T03:52:04;5.78;;;1.27;;
26269;SDS011;15937;50.612;6.656;2023-12-22T03:56:07;6.50;;;1.83;;
26269;SDS011;15937;50.612;6.656;2023-12-22T04:00:10;10.10;;;1.63;;
26269;SDS011;15937;50.612;6.656;2023-12-22T04:04:12;13.75;;;2.20;;
26269;SDS011;15937;50.612;6.656;2023-12-22T04:08:14;10.68;;;2.55;;
26269;SDS011;15937;50.612;6.656;2023-12-22T04:12:16;25.67;;;3.53;;
26269;SDS011;15937;50.612;6.656;2023-12-22T04:16:18;25.45;;;2.97;;
26269;SDS011;15937;50.612;6.656;2023-12-22T04:20:20;20.85;;;3.58;;
26269;SDS011;15937;50.612;6.656;2023-12-22T04:24:22;13.10;;;2.78;;
26269;SDS011;15937;50.612;6.656;2023-12-22T04:28:25;12.07;;;3.23;;
26269;SDS011;15937;50.612;6.656;2023-12-22T04:32:29;26.00;;;3.78;;
26269;SDS011;15937;50.612;6.656;2023-12-22T04:58:41;11.27;;;2.15;;
26269;SDS011;15937;50.612;6.656;2023-12-22T05:02:43;18.38;;;3.10;;
26269;SDS011;15937;50.612;6.656;2023-12-22T05:06:45;20.30;;;3.17;;
26269;SDS011;15937;50.612;6.656;2023-12-22T05:10:49;14.50;;;2.38;;
26269;SDS011;15937;50.612;6.656;2023-12-22T05:14:51;21.25;;;3.08;;
26269;SDS011;15937;50.612;6.656;2023-12-22T05:18:55;8.80;;;2.33;;
26269;SDS011;15937;50.612;6.656;2023-12-22T05:22:57;17.75;;;3.42;;
26269;SDS011;15937;50.612;6.656;2023-12-22T05:27:00;18.85;;;3.42;;
26269;SDS011;15937;50.612;6.656;2023-12-22T05:35:05;25.40;;;3.20;;
26269;SDS011;15937;50.612;6.656;2023-12-22T05:39:07;17.05;;;2.85;;
26269;SDS011;15937;50.612;6.656;2023-12-22T05:43:12;15.02;;;3.13;;
26269;SDS011;15937;50.612;6.656;2023-12-22T05:47:14;21.30;;;2.78;;
26269;SDS011;15937;50.612;6.656;2023-12-22T05:51:15;11.38;;;2.33;;
26269;SDS011;15937;50.612;6.656;2023-12-22T06:26:26;13.02;;;2.22;;
26269;SDS011;15937;50.612;6.656;2023-12-22T06:30:41;14.60;;;3.30;;
26269;SDS011;15937;50.612;6.656;2023-12-22T06:35:14;20.95;;;2.83;;
26269;SDS011;15937;50.612;6.656;2023-12-22T06:47:40;14.63;;;3.15;;
26269;SDS011;15937;50.612;6.656;2023-12-22T07:13:15;22.60;;;3.80;;
26269;SDS011;15937;50.612;6.656;2023-12-22T07:21:42;28.80;;;4.82;;
26269;SDS011;15937;50.612;6.656;2023-12-22T07:30:19;34.58;;;4.70;;
26269;SDS011;15937;50.612;6.656;2023-12-22T07:34:22;25.13;;;5.03;;
26269;SDS011;15937;50.612;6.656;2023-12-22T07:46:55;30.35;;;3.83;;
26269;SDS011;15937;50.612;6.656;2023-12-22T07:51:01;18.48;;;3.47;;
26269;SDS011;15937;50.612;6.656;2023-12-22T07:55:04;22.10;;;3.65;;
26269;SDS011;15937;50.612;6.656;2023-12-22T07:59:07;27.65;;;3.90;;
26269;SDS011;15937;50.612;6.656;2023-12-22T08:03:27;24.77;;;3.10;;
26269;SDS011;15937;50.612;6.656;2023-12-22T08:07:29;21.52;;;3.70;;
26269;SDS011;15937;50.612;6.656;2023-12-22T08:11:31;23.08;;;3.67;;
26269;SDS011;15937;50.612;6.656;2023-12-22T08:15:33;14.95;;;2.50;;
26269;SDS011;15937;50.612;6.656;2023-12-22T08:19:37;9.32;;;2.70;;
26269;SDS011;15937;50.612;6.656;2023-12-22T08:23:43;19.58;;;4.05;;
26269;SDS011;15937;50.612;6.656;2023-12-22T08:27:53;23.23;;;4.35;;
26269;SDS011;15937;50.612;6.656;2023-12-22T08:31:55;32.85;;;3.92;;
26269;SDS011;15937;50.612;6.656;2023-12-22T08:35:57;22.77;;;3.38;;
26269;SDS011;15937;50.612;6.656;2023-12-22T08:39:59;15.05;;;3.03;;
26269;SDS011;15937;50.612;6.656;2023-12-22T08:44:02;18.33;;;3.50;;
26269;SDS011;15937;50.612;6.656;2023-12-22T08:48:05;20.35;;;4.45;;
26269;SDS011;15937;50.612;6.656;2023-12-22T08:52:09;15.85;;;3.42;;
26269;SDS011;15937;50.612;6.656;2023-12-22T08:56:12;18.85;;;3.95;;
26269;SDS011;15937;50.612;6.656;2023-12-22T09:00:14;14.80;;;3.00;;
26269;SDS011;15937;50.612;6.656;2023-12-22T09:04:16;15.83;;;4.10;;
26269;SDS011;15937;50.612;6.656;2023-12-22T09:08:18;20.00;;;4.05;;
26269;SDS011;15937;50.612;6.656;2023-12-22T09:12:23;13.32;;;3.25;;
26269;SDS011;15937;50.612;6.656;2023-12-22T09:16:26;12.15;;;3.03;;
26269;SDS011;15937;50.612;6.656;2023-12-22T09:20:28;22.70;;;3.67;;
26269;SDS011;15937;50.612;6.656;2023-12-22T09:24:31;18.55;;;2.85;;
26269;SDS011;15937;50.612;6.656;2023-12-22T09:28:33;8.63;;;2.42;;
26269;SDS011;15937;50.612;6.656;2023-12-22T09:32:36;14.80;;;2.58;;
26269;SDS011;15937;50.612;6.656;2023-12-22T09:36:38;13.00;;;2.53;;
26269;SDS011;15937;50.612;6.656;2023-12-22T09:40:41;8.10;;;2.45;;
26269;SDS011;15937;50.612;6.656;2023-12-22T09:44:43;11.07;;;2.33;;
26269;SDS011;15937;50.612;6.656;2023-12-22T09:48:48;13.98;;;1.70;;
26269;SDS011;15937;50.612;6.656;2023-12-22T09:52:53;3.38;;;1.80;;
26269;SDS011;15937;50.612;6.656;2023-12-22T09:56:55;6.18;;;1.85;;
26269;SDS011;15937;50.612;6.656;2023-12-22T10:00:58;3.85;;;1.58;;
26269;SDS011;15937;50.612;6.656;2023-12-22T10:05:03;4.85;;;1.40;;
26269;SDS011;15937;50.612;6.656;2023-12-22T10:09:06;5.57;;;1.70;;
26269;SDS011;15937;50.612;6.656;2023-12-22T10:13:10;6.22;;;1.70;;
26269;SDS011;15937;50.612;6.656;2023-12-22T10:17:12;4.30;;;2.17;;
26269;SDS011;15937;50.612;6.656;2023-12-22T10:21:16;3.80;;;1.30;;
26269;SDS011;15937;50.612;6.656;2023-12-22T10:25:21;9.13;;;1.88;;
26269;SDS011;15937;50.612;6.656;2023-12-22T10:29:31;1.88;;;1.15;;
26269;SDS011;15937;50.612;6.656;2023-12-22T10:33:35;0.90;;;0.88;;
26269;SDS011;15937;50.612;6.656;2023-12-22T10:37:36;3.10;;;1.35;;
26269;SDS011;15937;50.612;6.656;2023-12-22T10:41:40;1.77;;;1.02;;
26269;SDS011;15937;50.612;6.656;2023-12-22T10:45:42;2.90;;;1.15;;
26269;SDS011;15937;50.612;6.656;2023-12-22T10:49:45;1.73;;;1.27;;
26269;SDS011;15937;50.612;6.656;2023-12-22T10:53:47;1.52;;;1.10;;
26269;SDS011;15937;50.612;6.656;2023-12-22T10:57:49;2.35;;;1.20;;
26269;SDS011;15937;50.612;6.656;2023-12-22T11:01:52;6.20;;;1.50;;
26269;SDS011;15937;50.612;6.656;2023-12-22T11:05:56;3.40;;;1.25;;
26269;SDS011;15937;50.612;6.656;2023-12-22T11:10:10;2.58;;;1.10;;
26269;SDS011;15937;50.612;6.656;2023-12-22T11:14:15;3.25;;;1.10;;
26269;SDS011;15937;50.612;6.656;2023-12-22T11:18:18;1.00;;;0.90;;
26269;SDS011;15937;50.612;6.656;2023-12-22T11:22:21;2.75;;;0.70;;
26269;SDS011;15937;50.612;6.656;2023-12-22T11:26:24;0.80;;;0.80;;
26269;SDS011;15937;50.612;6.656;2023-12-22T11:30:27;0.65;;;0.65;;
26269;SDS011;15937;50.612;6.656;2023-12-22T11:34:30;1.38;;;1.00;;
26269;SDS011;15937;50.612;6.656;2023-12-22T11:38:40;1.20;;;1.10;;
26269;SDS011;15937;50.612;6.656;2023-12-22T11:42:45;13.88;;;5.20;;
26269;SDS011;15937;50.612;6.656;2023-12-22T11:47:05;2.47;;;1.10;;
26269;SDS011;15937;50.612;6.656;2023-12-22T11:51:13;1.27;;;1.00;;
26269;SDS011;15937;50.612;6.656;2023-12-22T11:55:17;2.20;;;1.42;;
26269;SDS011;15937;50.612;6.656;2023-12-22T11:59:50;4.70;;;2.03;;
26269;SDS011;15937;50.612;6.656;2023-12-22T12:08:29;2.95;;;1.40;;
26269;SDS011;15937;50.612;6.656;2023-12-22T12:12:33;2.95;;;1.40;;
26269;SDS011;15937;50.612;6.656;2023-12-22T12:21:32;5.60;;;1.65;;
26269;SDS011;15937;50.612;6.656;2023-12-22T12:25:52;5.78;;;1.20;;
26269;SDS011;15937;50.612;6.656;2023-12-22T12:30:09;2.63;;;1.30;;
26269;SDS011;15937;50.612;6.656;2023-12-22T12:34:14;8.73;;;1.30;;
26269;SDS011;15937;50.612;6.656;2023-12-22T12:38:23;2.65;;;1.10;;
26269;SDS011;15937;50.612;6.656;2023-12-22T12:42:55;1.60;;;1.20;;
26269;SDS011;15937;50.612;6.656;2023-12-22T12:52:27;3.70;;;1.20;;
26269;SDS011;15937;50.612;6.656;2023-12-22T12:56:35;4.65;;;1.30;;
26269;SDS011;15937;50.612;6.656;2023-12-22T13:01:09;2.42;;;1.00;;
26269;SDS011;15937;50.612;6.656;2023-12-22T13:05:29;1.65;;;1.10;;
26269;SDS011;15937;50.612;6.656;2023-12-22T13:09:40;2.03;;;1.00;;
26269;SDS011;15937;50.612;6.656;2023-12-22T13:13:48;4.80;;;1.42;;
26269;SDS011;15937;50.612;6.656;2023-12-22T13:17:59;1.52;;;0.93;;
26269;SDS011;15937;50.612;6.656;2023-12-22T13:22:01;3.40;;;1.37;;
26269;SDS011;15937;50.612;6.656;2023-12-22T13:26:03;2.60;;;0.97;;
26269;SDS011;15937;50.612;6.656;2023-12-22T13:30:06;5.82;;;1.70;;
26269;SDS011;15937;50.612;6.656;2023-12-22T13:34:14;4.65;;;1.20;;
26269;SDS011;15937;50.612;6.656;2023-12-22T13:38:18;3.88;;;1.00;;
26269;SDS011;15937;50.612;6.656;2023-12-22T13:59:32;2.08;;;1.10;;
26269;SDS011;15937;50.612;6.656;2023-12-22T14:03:43;6.93;;;1.07;;
26269;SDS011;15937;50.612;6.656;2023-12-22T14:07:51;3.10;;;1.20;;
26269;SDS011;15937;50.612;6.656;2023-12-22T14:11:54;0.98;;;0.90;;
26269;SDS011;15937;50.612;6.656;2023-12-22T14:16:05;3.90;;;1.30;;
26269;SDS011;15937;50.612;6.656;2023-12-22T14:20:08;2.20;;;1.23;;
26269;SDS011;15937;50.612;6.656;2023-12-22T14:24:12;4.80;;;1.55;;
26269;SDS011;15937;50.612;6.656;2023-12-22T14:28:13;1.23;;;1.05;;
26269;SDS011;15937;50.612;6.656;2023-12-22T14:32:15;3.33;;;1.42;;
26269;SDS011;15937;50.612;6.656;2023-12-22T14:36:20;1.20;;;1.00;;
26269;SDS011;15937;50.612;6.656;2023-12-22T14:40:22;1.75;;;1.05;;
26269;SDS011;15937;50.612;6.656;2023-12-22T14:44:25;4.20;;;1.35;;
26269;SDS011;15937;50.612;6.656;2023-12-22T14:48:27;5.10;;;1.20;;
26269;SDS011;15937;50.612;6.656;2023-12-22T14:52:32;4.60;;;1.15;;
26269;SDS011;15937;50.612;6.656;2023-12-22T14:56:34;3.30;;;1.17;;
26269;SDS011;15937;50.612;6.656;2023-12-22T15:00:39;3.40;;;1.02;;
26269;SDS011;15937;50.612;6.656;2023-12-22T15:04:41;1.25;;;0.95;;
26269;SDS011;15937;50.612;6.656;2023-12-22T15:08:43;5.78;;;1.70;;
26269;SDS011;15937;50.612;6.656;2023-12-22T15:12:45;1.70;;;0.98;;
26269;SDS011;15937;50.612;6.656;2023-12-22T15:16:47;4.90;;;1.67;;
26269;SDS011;15937;50.612;6.656;2023-12-22T15:20:52;4.80;;;1.48;;
26269;SDS011;15937;50.612;6.656;2023-12-22T15:24:54;4.60;;;1.67;;
26269;SDS011;15937;50.612;6.656;2023-12-22T15:28:56;5.07;;;1.75;;
26269;SDS011;15937;50.612;6.656;2023-12-22T15:32:58;5.68;;;1.88;;
26269;SDS011;15937;50.612;6.656;2023-12-22T15:37:00;4.43;;;2.00;;
26269;SDS011;15937;50.612;6.656;2023-12-22T15:49:42;5.75;;;2.05;;
26269;SDS011;15937;50.612;6.656;2023-12-22T16:36:46;4.68;;;1.13;;
26269;SDS011;15937;50.612;6.656;2023-12-22T16:40:48;3.67;;;1.20;;
26269;SDS011;15937;50.612;6.656;2023-12-22T16:44:50;3.30;;;1.40;;
26269;SDS011;15937;50.612;6.656;2023-12-22T16:48:53;4.97;;;1.33;;
26269;SDS011;15937;50.612;6.656;2023-12-22T16:52:55;6.30;;;1.35;;
26269;SDS011;15937;50.612;6.656;2023-12-22T16:56:57;5.90;;;1.20;;
26269;SDS011;15937;50.612;6.656;2023-12-22T17:00:59;3.43;;;1.13;;
26269;SDS011;15937;50.612;6.656;2023-12-22T17:05:23;3.63;;;1.50;;
26269;SDS011;15937;50.612;6.656;2023-12-22T17:09:27;5.97;;;1.48;;
26269;SDS011;15937;50.612;6.656;2023-12-22T17:13:29;3.00;;;1.33;;
26269;SDS011;15937;50.612;6.656;2023-12-22T17:17:37;4.63;;;1.70;;
26269;SDS011;15937;50.612;6.656;2023-12-22T17:21:41;3.83;;;0.93;;
26269;SDS011;15937;50.612;6.656;2023-12-22T17:25:44;2.42;;;1.17;;
26269;SDS011;15937;50.612;6.656;2023-12-22T17:29:57;3.33;;;1.40;;
26269;SDS011;15937;50.612;6.656;2023-12-22T17:33:59;5.20;;;1.35;;
26269;SDS011;15937;50.612;6.656;2023-12-22T17:38:01;4.60;;;1.75;;
26269;SDS011;15937;50.612;6.656;2023-12-22T17:42:03;7.20;;;1.52;;
26269;SDS011;15937;50.612;6.656;2023-12-22T17:46:06;5.77;;;2.20;;
26269;SDS011;15937;50.612;6.656;2023-12-22T17:50:08;6.70;;;2.20;;
26269;SDS011;15937;50.612;6.656;2023-12-22T17:54:10;6.20;;;1.60;;
26269;SDS011;15937;50.612;6.656;2023-12-22T17:58:12;3.10;;;1.48;;
26269;SDS011;15937;50.612;6.656;2023-12-22T18:02:14;5.80;;;1.77;;
26269;SDS011;15937;50.612;6.656;2023-12-22T18:06:19;10.57;;;2.00;;
26269;SDS011;15937;50.612;6.656;2023-12-22T18:10:25;4.32;;;1.50;;
26269;SDS011;15937;50.612;6.656;2023-12-22T18:14:30;9.50;;;2.05;;
26269;SDS011;15937;50.612;6.656;2023-12-22T18:18:32;4.82;;;1.50;;
26269;SDS011;15937;50.612;6.656;2023-12-22T18:22:38;10.80;;;2.08;;
26269;SDS011;15937;50.612;6.656;2023-12-22T18:26:42;7.32;;;2.58;;
26269;SDS011;15937;50.612;6.656;2023-12-22T18:30:45;13.43;;;2.63;;
26269;SDS011;15937;50.612;6.656;2023-12-22T18:34:47;8.05;;;2.80;;
26269;SDS011;15937;50.612;6.656;2023-12-22T18:38:49;10.98;;;3.03;;
26269;SDS011;15937;50.612;6.656;2023-12-22T18:42:51;11.00;;;2.45;;
26269;SDS011;15937;50.612;6.656;2023-12-22T18:46:53;21.70;;;4.53;;
26269;SDS011;15937;50.612;6.656;2023-12-22T18:50:55;11.32;;;2.72;;
26269;SDS011;15937;50.612;6.656;2023-12-22T18:54:58;5.23;;;1.97;;
26269;SDS011;15937;50.612;6.656;2023-12-22T18:59:00;8.50;;;2.03;;
26269;SDS011;15937;50.612;6.656;2023-12-22T19:03:10;14.20;;;3.22;;
26269;SDS011;15937;50.612;6.656;2023-12-22T19:07:14;9.25;;;2.42;;
26269;SDS011;15937;50.612;6.656;2023-12-22T19:11:16;6.97;;;2.08;;
26269;SDS011;15937;50.612;6.656;2023-12-22T19:15:18;8.60;;;2.00;;
26269;SDS011;15937;50.612;6.656;2023-12-22T19:19:21;4.65;;;1.35;;
26269;SDS011;15937;50.612;6.656;2023-12-22T19:27:33;4.68;;;1.38;;
26269;SDS011;15937;50.612;6.656;2023-12-22T19:31:37;5.13;;;1.50;;
26269;SDS011;15937;50.612;6.656;2023-12-22T19:35:41;7.25;;;1.83;;
26269;SDS011;15937;50.612;6.656;2023-12-22T19:39:44;7.33;;;1.87;;
26269;SDS011;15937;50.612;6.656;2023-12-22T19:43:46;8.52;;;1.95;;
26269;SDS011;15937;50.612;6.656;2023-12-22T19:47:49;4.67;;;1.53;;
26269;SDS011;15937;50.612;6.656;2023-12-22T19:51:52;10.05;;;2.22;;
26269;SDS011;15937;50.612;6.656;2023-12-22T19:55:54;13.10;;;2.07;;
26269;SDS011;15937;50.612;6.656;2023-12-22T19:59:56;4.17;;;1.90;;
26269;SDS011;15937;50.612;6.656;2023-12-22T20:03:58;4.80;;;1.63;;
26269;SDS011;15937;50.612;6.656;2023-12-22T20:08:01;9.50;;;1.40;;
26269;SDS011;15937;50.612;6.656;2023-12-22T20:12:08;7.15;;;1.52;;
26269;SDS011;15937;50.612;6.656;2023-12-22T20:16:11;3.78;;;1.42;;
26269;SDS011;15937;50.612;6.656;2023-12-22T20:20:25;9.15;;;1.88;;
26269;SDS011;15937;50.612;6.656;2023-12-22T20:24:28;12.02;;;2.05;;
26269;SDS011;15937;50.612;6.656;2023-12-22T20:28:30;6.30;;;1.67;;
26269;SDS011;15937;50.612;6.656;2023-12-22T20:32:33;6.57;;;2.17;;
26269;SDS011;15937;50.612;6.656;2023-12-22T20:36:35;3.78;;;1.63;;
26269;SDS011;15937;50.612;6.656;2023-12-22T20:40:37;5.35;;;1.40;;
26269;SDS011;15937;50.612;6.656;2023-12-22T20:44:47;6.03;;;1.60;;
26269;SDS011;15937;50.612;6.656;2023-12-22T20:48:56;5.72;;;2.10;;
26269;SDS011;15937;50.612;6.656;2023-12-22T20:52:58;9.35;;;1.70;;
26269;SDS011;15937;50.612;6.656;2023-12-22T20:57:01;7.10;;;2.40;;
26269;SDS011;15937;50.612;6.656;2023-12-22T21:01:09;8.73;;;1.88;;
26269;SDS011;15937;50.612;6.656;2023-12-22T21:05:13;7.47;;;2.50;;
26269;SDS011;15937;50.612;6.656;2023-12-22T21:09:20;4.38;;;1.92;;
26269;SDS011;15937;50.612;6.656;2023-12-22T21:13:23;7.77;;;2.03;;
26269;SDS011;15937;50.612;6.656;2023-12-22T21:17:25;10.17;;;2.57;;
26269;SDS011;15937;50.612;6.656;2023-12-22T21:21:30;8.52;;;2.22;;
26269;SDS011;15937;50.612;6.656;2023-12-22T21:25:40;6.35;;;2.05;;
26269;SDS011;15937;50.612;6.656;2023-12-22T21:29:43;7.53;;;1.65;;
26269;SDS011;15937;50.612;6.656;2023-12-22T21:33:46;7.93;;;2.22;;
26269;SDS011;15937;50.612;6.656;2023-12-22T21:37:58;6.97;;;1.92;;
26269;SDS011;15937;50.612;6.656;2023-12-22T21:42:04;6.80;;;2.10;;
26269;SDS011;15937;50.612;6.656;2023-12-22T21:46:07;6.47;;;1.67;;
26269;SDS011;15937;50.612;6.656;2023-12-22T21:50:10;10.95;;;1.42;;
26269;SDS011;15937;50.612;6.656;2023-12-22T21:54:13;8.68;;;1.70;;
26269;SDS011;15937;50.612;6.656;2023-12-22T21:58:15;11.63;;;2.60;;
26269;SDS011;15937;50.612;6.656;2023-12-22T22:02:20;10.60;;;2.30;;
26269;SDS011;15937;50.612;6.656;2023-12-22T22:06:22;5.47;;;2.05;;
26269;SDS011;15937;50.612;6.656;2023-12-22T22:10:24;17.17;;;2.57;;
26269;SDS011;15937;50.612;6.656;2023-12-22T22:14:26;9.90;;;2.00;;
26269;SDS011;15937;50.612;6.656;2023-12-22T22:18:33;4.25;;;1.80;;
26269;SDS011;15937;50.612;6.656;2023-12-22T22:22:36;7.05;;;1.70;;
26269;SDS011;15937;50.612;6.656;2023-12-22T22:26:39;10.48;;;2.33;;
26269;SDS011;15937;50.612;6.656;2023-12-22T22:34:46;12.25;;;2.25;;
26269;SDS011;15937;50.612;6.656;2023-12-22T22:38:48;10.75;;;2.03;;
26269;SDS011;15937;50.612;6.656;2023-12-22T22:42:50;8.82;;;1.65;;
26269;SDS011;15937;50.612;6.656;2023-12-22T22:46:55;4.43;;;1.60;;
26269;SDS011;15937;50.612;6.656;2023-12-22T22:50:57;6.07;;;1.90;;
26269;SDS011;15937;50.612;6.656;2023-12-22T22:54:59;6.70;;;2.08;;
26269;SDS011;15937;50.612;6.656;2023-12-22T22:59:00;6.45;;;1.40;;
26269;SDS011;15937;50.612;6.656;2023-12-22T23:03:03;4.20;;;1.52;;
26269;SDS011;15937;50.612;6.656;2023-12-22T23:07:05;5.95;;;1.77;;
26269;SDS011;15937;50.612;6.656;2023-12-22T23:11:08;4.53;;;1.15;;
26269;SDS011;15937;50.612;6.656;2023-12-22T23:15:10;4.87;;;1.77;;
26269;SDS011;15937;50.612;6.656;2023-12-22T23:19:12;6.63;;;1.40;;
26269;SDS011;15937;50.612;6.656;2023-12-22T23:23:14;7.47;;;1.87;;
26269;SDS011;15937;50.612;6.656;2023-12-22T23:27:16;10.68;;;2.05;;
26269;SDS011;15937;50.612;6.656;2023-12-22T23:31:19;5.80;;;1.55;;
26269;SDS011;15937;50.612;6.656;2023-12-22T23:35:21;1.33;;;1.00;;
26269;SDS011;15937;50.612;6.656;2023-12-22T23:39:25;2.97;;;1.20;;
26269;SDS011;15937;50.612;6.656;2023-12-22T23:43:27;2.85;;;1.40;;
26269;SDS011;15937;50.612;6.656;2023-12-22T23:47:29;5.15;;;1.20;;
26269;SDS011;15937;50.612;6.656;2023-12-22T23:51:31;6.85;;;1.30;;
26269;SDS011;15937;50.612;6.656;2023-12-22T23:55:33;4.00;;;1.05;;
26269;SDS011;15937;50.612;6.656;2023-12-22T23:59:38;4.28;;;1.27;;
